Haxby, United Kingdom
Current Conditions -  °F | °C
As of 12:50 PM on Wednesday 26 Nov 2014 (Local Time) from EGXU Reporting Station
Light Rain Light Rain  
Wind Chill: 46°   Ceiling: 5000
Heat Index: 48°   Visibility: 4mi
Dew Point: 45°   Wind: 6mph
Humidity: 87%   Direction: 60°ENE
Pressure: 29.88"   Gusts: NA
Location:  54.02°N, 1.08°W
Report Text: EGXU 261250Z 06005KT 6000 -RA FEW014 SCT035 OVC050 09/07 Q1012 WHT TEMPO SCT014 GRN
Loading
Personal Weather Stations






























Interactive Weather Map New forecast layout! Learn more

10-Day Weather Forecast

Advertisements
Track Severe Weather on mobile